Time;durP1;ratioP1;P1;durP2;ratioP2;P2;SDS_P1;SDS_P2;PMS_P1;PMS_P2;Temp;Humidity;BMP_temperature;BMP_pressure;BME280_temperature;BME280_humidity;BME280_pressure;Samples;Min_cycle;Max_cycle;Signal;HPM_P1;HPM_P2
2023/02/24 00:02:13;;;;;;;38.17;17.73;;;7.40;64.10;;;2.53;100.00;95025.75;4932627;29;20409;-50
2023/02/24 00:04:40;;;;;;;33.70;17.30;;;7.40;64.10;;;2.48;100.00;95027.47;4955286;28;20081;-49
2023/02/24 00:07:15;;;;;;;36.47;17.17;;;7.30;64.00;;;2.48;100.00;95024.84;4928220;29;20019;-47
2023/02/24 00:09:43;;;;;;;35.88;18.10;;;7.30;64.20;;;2.50;100.00;95020.94;4941117;28;20019;-50
2023/02/24 00:12:17;;;;;;;49.03;20.13;;;7.20;64.10;;;2.51;100.00;95025.19;4940093;28;20023;-47
2023/02/24 00:14:44;;;;;;;37.50;17.10;;;7.20;64.30;;;2.50;100.00;95018.31;4930971;29;20019;-48
2023/02/24 00:17:15;;;;;;;40.50;16.77;;;7.20;64.20;;;2.43;100.00;95017.63;4930546;29;20482;-48
2023/02/24 00:19:42;;;;;;;38.38;17.42;;;7.20;64.10;;;2.36;100.00;95003.78;4930733;29;20113;-47
2023/02/24 00:22:11;;;;;;;39.88;18.08;;;7.20;64.10;;;2.29;100.00;95013.63;4930421;29;20031;-49
2023/02/24 00:24:39;;;;;;;48.83;19.23;;;7.10;64.20;;;2.28;100.00;95004.09;4924978;29;20387;-47
2023/02/24 00:27:06;;;;;;;41.70;19.08;;;7.10;64.10;;;2.23;100.00;95004.81;4925291;29;20035;-51
2023/02/24 00:29:33;;;;;;;55.22;21.70;;;7.10;64.30;;;2.23;100.00;94993.50;4930539;29;20513;-49
2023/02/24 00:31:59;;;;;;;47.90;20.23;;;7.00;64.30;;;2.22;100.00;94995.28;4931057;29;20479;-47
2023/02/24 00:34:34;;;;;;;56.70;23.92;;;7.00;64.40;;;2.25;100.00;94991.41;4931181;29;20110;-49
2023/02/24 00:37:01;;;;;;;51.45;21.58;;;7.00;64.70;;;2.25;100.00;94994.84;4929905;29;20041;-49
2023/02/24 00:39:29;;;;;;;53.08;20.23;;;7.00;64.70;;;2.23;100.00;95001.38;4931342;28;20057;-48
2023/02/24 00:42:05;;;;;;;50.67;21.58;;;7.00;64.80;;;2.22;100.00;94999.75;4943963;29;20420;-47
2023/02/24 00:44:52;;;;;;;51.65;22.55;;;7.00;64.90;;;2.21;100.00;94992.91;4923161;29;20026;-50
2023/02/24 00:47:21;;;;;;;46.60;20.25;;;7.00;64.90;;;2.16;100.00;94990.16;4932229;29;20030;-49
2023/02/24 00:49:50;;;;;;;46.72;18.70;;;7.00;64.80;;;2.07;100.00;94990.50;4949296;28;20030;-49
2023/02/24 00:52:20;;;;;;;47.55;18.80;;;6.90;64.60;;;1.99;100.00;94985.56;4927267;29;20042;-49
2023/02/24 00:54:49;;;;;;;43.15;18.42;;;6.90;64.70;;;2.00;100.00;94992.41;4949214;28;20019;-47
2023/02/24 00:57:17;;;;;;;45.22;19.98;;;6.90;64.60;;;1.98;100.00;94989.22;4929475;29;20038;-48
2023/02/24 00:59:52;;;;;;;54.78;22.48;;;6.80;64.50;;;1.96;100.00;94995.72;4934416;28;20026;-49
2023/02/24 01:02:19;;;;;;;54.40;20.88;;;6.80;64.70;;;1.93;100.00;94994.34;4950179;28;20202;-49
2023/02/24 01:04:49;;;;;;;48.22;22.45;;;6.80;64.90;;;1.97;100.00;94992.06;4948255;28;20050;-48
2023/02/24 01:07:16;;;;;;;49.58;20.00;;;6.80;65.10;;;1.95;100.00;94994.91;4949997;28;20019;-50
2023/02/24 01:09:45;;;;;;;54.28;20.90;;;6.70;65.00;;;1.94;100.00;94989.88;4948605;28;20046;-47
2023/02/24 01:12:37;;;;;;;52.70;20.88;;;6.80;65.10;;;1.93;100.00;94986.44;4935037;29;20058;-48
2023/02/24 01:15:07;;;;;;;38.20;17.55;;;6.70;65.00;;;1.87;100.00;94979.47;4923140;29;20051;-51
2023/02/24 01:17:36;;;;;;;52.00;20.83;;;6.70;64.80;;;1.80;100.00;94978.78;4934623;29;20118;-48
2023/02/24 01:20:18;;;;;;;47.53;20.35;;;6.70;64.80;;;1.75;100.00;94979.44;4934754;29;20023;-52
2023/02/24 01:22:52;;;;;;;49.95;21.17;;;6.60;64.90;;;1.75;100.00;94968.13;4948301;28;20110;-50
2023/02/24 01:25:19;;;;;;;61.47;22.90;;;6.60;65.00;;;1.75;100.00;94973.38;4949924;28;20026;-47
2023/02/24 01:27:54;;;;;;;57.35;21.38;;;6.60;65.00;;;1.72;100.00;94969.38;4933603;28;20032;-48
2023/02/24 01:30:20;;;;;;;51.10;20.40;;;6.50;65.10;;;1.67;100.00;94963.22;4929576;29;20047;-47
2023/02/24 01:32:49;;;;;;;54.60;22.33;;;6.50;65.10;;;1.59;100.00;94965.09;4934026;29;20062;-47
2023/02/24 01:35:21;;;;;;;53.55;20.60;;;6.50;65.10;;;1.57;100.00;94961.94;4949466;28;20089;-48
2023/02/24 01:38:00;;;;;;;77.53;23.42;;;6.50;65.10;;;1.56;100.00;94965.56;4934708;29;20035;-47
2023/02/24 01:40:29;;;;;;;68.07;24.30;;;6.40;65.10;;;1.53;100.00;94963.38;4945676;28;20031;-47
2023/02/24 01:42:55;;;;;;;76.75;27.23;;;6.40;65.20;;;1.53;100.00;94955.50;4926749;29;20023;-48
2023/02/24 01:45:28;;;;;;;64.88;26.45;;;6.40;65.30;;;1.55;100.00;94957.91;4920271;29;20033;-47
2023/02/24 01:48:07;;;;;;;64.55;26.15;;;6.40;65.50;;;1.57;100.00;94950.63;4933832;29;20127;-48
2023/02/24 01:50:37;;;;;;;53.78;23.30;;;6.30;65.60;;;1.57;100.00;94953.25;4934296;29;20023;-48
2023/02/24 01:53:07;;;;;;;68.47;24.50;;;6.40;65.60;;;1.56;100.00;94951.63;4923388;28;20110;-48
2023/02/24 01:55:48;;;;;;;80.43;26.08;;;6.30;65.60;;;1.57;100.00;94953.25;4938507;28;20054;-47
2023/02/24 01:58:29;;;;;;;58.72;22.60;;;6.30;65.70;;;1.54;100.00;94953.69;4933312;28;20031;-48
2023/02/24 02:00:58;;;;;;;54.17;21.48;;;6.40;65.80;;;1.54;100.00;94948.44;4949232;28;20019;-48
2023/02/24 02:03:35;;;;;;;64.50;23.65;;;6.30;65.70;;;1.50;100.00;94939.41;4948303;28;20037;-49
2023/02/24 02:06:10;;;;;;;63.00;23.00;;;6.30;65.70;;;1.48;100.00;94944.88;4934464;29;20019;-52
2023/02/24 02:08:42;;;;;;;63.80;22.85;;;6.30;65.70;;;1.44;100.00;94938.47;4948997;28;20037;-51
2023/02/24 02:11:18;;;;;;;68.90;24.17;;;6.30;65.70;;;1.43;100.00;94944.75;4947525;28;20050;-47
2023/02/24 02:13:55;;;;;;;60.72;24.38;;;6.30;65.70;;;1.45;100.00;94940.06;4933237;28;20038;-48
2023/02/24 02:17:05;;;;;;;77.50;25.20;;;6.20;65.70;;;1.45;100.00;94941.91;4933162;29;20030;-49
2023/02/24 02:20:18;;;;;;;56.40;22.95;;;6.30;65.90;;;1.41;100.00;94940.72;4929014;29;20114;-48
2023/02/24 02:23:58;;;;;;;67.93;24.52;;;6.30;65.80;;;1.43;100.00;94938.69;4930626;29;20486;-49
2023/02/24 02:27:10;;;;;;;56.20;20.95;;;6.20;65.80;;;1.32;100.00;94943.69;4930075;29;20035;-47
2023/02/24 02:30:05;;;;;;;62.30;22.83;;;6.20;65.80;;;1.31;100.00;94949.13;4921056;29;20046;-47
2023/02/24 02:33:00;;;;;;;61.90;22.45;;;6.10;65.80;;;1.28;100.00;94942.50;4934181;29;20367;-50
2023/02/24 02:36:12;;;;;;;53.65;23.23;;;6.10;65.80;;;1.21;100.00;94947.03;4930299;29;20107;-51
2023/02/24 02:39:13;;;;;;;68.68;24.10;;;6.10;65.80;;;1.18;100.00;94944.06;4943898;28;20054;-51
2023/02/24 02:42:17;;;;;;;60.05;24.23;;;6.00;65.80;;;1.25;100.00;94939.53;4948577;28;20105;-47
2023/02/24 02:46:07;;;;;;;61.83;22.92;;;6.00;66.00;;;1.22;100.00;94946.00;4948527;28;20109;-47
2023/02/24 02:48:58;;;;;;;61.03;23.23;;;6.00;65.90;;;1.21;100.00;94946.25;4906103;29;20497;-47
2023/02/24 02:51:43;;;;;;;71.35;26.52;;;6.00;66.00;;;1.26;100.00;94946.41;4945787;28;20385;-49
2023/02/24 02:54:30;;;;;;;76.25;28.67;;;6.00;66.20;;;1.34;100.00;94944.25;4924006;29;20035;-50
2023/02/24 02:57:13;;;;;;;71.50;25.63;;;6.10;66.40;;;1.38;100.00;94945.41;4927494;29;20031;-47
2023/02/24 02:59:51;;;;;;;;;;;6.10;66.40;;;1.46;100.00;94946.91;4932521;28;20019;-51
2023/02/24 03:02:27;;;;;;;61.90;25.90;;;6.20;66.00;;;1.55;100.00;94952.66;4922378;29;19965;-48
2023/02/24 03:05:03;;;;;;;57.63;25.45;;;6.20;66.40;;;1.61;100.00;94951.78;4944920;28;20436;-47
2023/02/24 03:07:41;;;;;;;60.90;27.60;;;6.30;66.60;;;1.69;100.00;94951.44;4945842;28;20029;-51
2023/02/24 03:10:21;;;;;;;64.65;27.33;;;6.40;66.60;;;1.71;100.00;94941.53;4956505;23;20047;-52
2023/02/24 03:13:09;;;;;;;65.20;25.58;;;6.50;66.70;;;1.78;100.00;94949.28;4970607;28;20483;-50
2023/02/24 03:15:43;;;;;;;67.50;25.05;;;6.60;66.70;;;1.80;100.00;94948.06;4953959;28;20018;-49
2023/02/24 03:18:27;;;;;;;58.15;24.05;;;6.60;66.60;;;1.87;100.00;94940.06;4971944;28;20430;-47
2023/02/24 03:21:10;;;;;;;61.10;25.45;;;6.70;66.80;;;1.92;100.00;94934.94;4951565;28;20469;-48
2023/02/24 03:23:49;;;;;;;63.60;25.88;;;6.70;66.70;;;1.99;100.00;94929.59;4937263;28;20031;-49
2023/02/24 03:26:32;;;;;;;61.45;25.23;;;6.80;66.70;;;2.05;100.00;94926.84;4986943;28;20399;-51
2023/02/24 03:29:36;;;;;;;;;;;6.80;66.70;;;2.11;100.00;94932.25;4954790;28;20093;-49
2023/02/24 03:32:12;;;;;;;59.47;23.73;;;6.90;66.20;;;2.14;100.00;94929.94;4958729;28;19905;-47
2023/02/24 03:35:16;;;;;;;62.15;26.05;;;6.90;66.40;;;2.18;100.00;94920.56;4962371;28;20392;-51
2023/02/24 03:37:46;;;;;;;57.55;23.15;;;7.00;66.50;;;2.20;100.00;94929.03;4954797;28;20480;-56
2023/02/24 03:40:17;;;;;;;62.28;23.63;;;7.00;66.50;;;2.22;100.00;94924.34;4949975;28;20033;-51
2023/02/24 03:42:50;;;;;;;59.92;23.55;;;7.00;66.50;;;2.27;100.00;94923.69;4943572;28;20113;-49
2023/02/24 03:45:18;;;;;;;57.45;23.05;;;7.10;66.50;;;2.30;100.00;94918.75;4953353;28;20029;-48
2023/02/24 03:47:57;;;;;;;60.47;22.90;;;7.10;66.50;;;2.29;100.00;94919.00;4986789;28;20088;-47
2023/02/24 03:50:31;;;;;;;56.05;23.45;;;7.10;66.50;;;2.30;100.00;94923.22;4962450;28;20026;-48
2023/02/24 03:53:55;;;;;;;61.42;23.10;;;7.20;66.50;;;2.32;100.00;94921.16;4953271;28;20030;-50
2023/02/24 03:56:44;;;;;;;47.40;20.05;;;7.20;66.40;;;2.31;100.00;94915.09;4971541;28;20616;-47
2023/02/24 03:59:26;;;;;;;51.58;20.08;;;7.20;66.40;;;2.29;100.00;94916.38;4969833;28;20114;-47
2023/02/24 04:02:29;;;;;;;;;;;7.20;66.40;;;2.25;100.00;94909.94;4952760;28;20074;-49
2023/02/24 04:05:08;;;;;;;50.78;19.88;;;7.10;65.90;;;2.21;100.00;94912.25;4935859;28;19936;-50
2023/02/24 04:07:54;;;;;;;49.05;20.65;;;7.10;66.10;;;2.13;100.00;94909.16;4982629;28;20160;-53
2023/02/24 04:10:59;;;;;;;55.38;22.67;;;7.10;66.10;;;2.09;100.00;94914.84;4960050;28;20112;-48
2023/02/24 04:13:53;;;;;;;47.33;20.83;;;7.10;66.20;;;2.14;100.00;94914.19;4981261;28;20058;-47
2023/02/24 04:16:35;;;;;;;61.55;24.10;;;7.10;66.20;;;2.15;100.00;94914.97;4967095;28;20037;-47
2023/02/24 04:19:17;;;;;;;62.40;24.35;;;7.00;66.20;;;2.21;100.00;94914.88;4953497;28;20559;-48
2023/02/24 04:21:49;;;;;;;75.25;25.17;;;7.00;66.40;;;2.19;100.00;94916.91;4966898;28;20025;-48
2023/02/24 04:24:26;;;;;;;124.93;26.48;;;7.00;66.40;;;2.11;100.00;94914.66;4946644;28;20034;-48
2023/02/24 04:26:58;;;;;;;178.15;27.35;;;7.00;66.40;;;2.13;100.00;94923.09;4956782;28;20108;-48
2023/02/24 04:29:37;;;;;;;578.75;39.33;;;7.00;66.30;;;2.11;100.00;94921.72;4969671;28;20026;-49
2023/02/24 04:32:16;;;;;;;120.80;27.38;;;7.00;66.40;;;2.14;100.00;94923.91;4959330;28;20026;-52
2023/02/24 04:34:42;;;;;;;146.73;26.88;;;7.00;66.40;;;2.16;100.00;94913.94;4963175;28;20084;-53
2023/02/24 04:37:08;;;;;;;139.10;27.77;;;7.00;66.30;;;2.10;100.00;94915.69;4962782;28;20682;-47
2023/02/24 04:39:37;;;;;;;134.90;27.83;;;7.00;66.40;;;2.10;100.00;94913.06;4955744;28;20548;-51
2023/02/24 04:42:05;;;;;;;112.28;25.20;;;7.00;66.30;;;2.03;100.00;94902.63;4957389;28;20031;-47
2023/02/24 04:44:32;;;;;;;242.70;31.15;;;7.00;66.40;;;2.03;100.00;94907.88;4967273;28;20050;-51
2023/02/24 04:47:11;;;;;;;106.90;25.08;;;6.90;66.30;;;2.01;100.00;94901.28;4976129;28;20034;-51
2023/02/24 04:49:39;;;;;;;194.40;32.00;;;7.00;66.40;;;1.96;100.00;94901.94;4950799;28;20609;-47
2023/02/24 04:52:15;;;;;;;76.65;26.95;;;6.90;66.30;;;1.93;100.00;94902.41;4967910;28;20080;-47
2023/02/24 04:54:43;;;;;;;94.10;27.60;;;6.90;66.40;;;1.93;100.00;94896.34;4950656;28;20082;-48
2023/02/24 04:57:15;;;;;;;82.38;27.23;;;6.90;66.40;;;1.92;100.00;94898.19;4968815;28;20030;-49
2023/02/24 04:59:41;;;;;;;79.10;25.80;;;6.90;66.70;;;1.91;100.00;94885.25;4965733;28;20101;-51
2023/02/24 05:02:07;;;;;;;69.72;26.02;;;6.80;66.50;;;1.91;100.00;94882.63;4968672;28;20749;-47
2023/02/24 05:04:37;;;;;;;73.28;25.17;;;6.80;66.60;;;1.89;100.00;94880.25;4953643;28;20547;-52
2023/02/24 05:07:04;;;;;;;66.00;24.77;;;6.90;66.70;;;1.91;100.00;94885.25;4965871;28;20473;-49
2023/02/24 05:09:29;;;;;;;63.85;26.30;;;6.90;66.70;;;1.95;100.00;94892.47;4967589;28;20022;-51
2023/02/24 05:11:59;;;;;;;59.00;24.10;;;6.90;66.80;;;1.98;100.00;94883.34;4968778;28;20068;-47
2023/02/24 05:14:25;;;;;;;62.70;24.10;;;6.90;66.90;;;1.99;100.00;94880.47;4940387;28;20461;-49
2023/02/24 05:16:59;;;;;;;80.60;27.30;;;6.90;66.80;;;2.01;100.00;94881.06;4968283;28;20117;-48
2023/02/24 05:22:13;;;;;;;66.53;25.35;;;7.00;67.00;;;2.06;100.00;94878.53;4966215;28;20084;-48
2023/02/24 05:24:40;;;;;;;67.95;26.95;;;7.00;67.00;;;2.06;100.00;94875.09;4959475;28;20384;-47
2023/02/24 05:27:06;;;;;;;73.47;28.10;;;7.00;67.80;;;2.07;100.00;94871.47;4966823;28;20027;-48
2023/02/24 05:29:35;;;;;;;70.95;28.55;;;7.00;67.00;;;2.15;100.00;94865.06;4952473;28;20026;-47
2023/02/24 05:32:04;;;;;;;75.22;29.63;;;7.00;67.00;;;2.17;100.00;94868.28;4951786;28;20080;-48
2023/02/24 05:34:32;;;;;;;78.35;28.92;;;7.10;67.10;;;2.20;100.00;94854.66;4962854;28;20462;-54
2023/02/24 05:37:08;;;;;;;79.50;28.35;;;7.10;67.10;;;2.23;100.00;94859.47;4968142;28;20090;-50
2023/02/24 05:39:37;;;;;;;83.40;30.45;;;7.10;67.10;;;2.28;100.00;94854.31;4952404;28;20018;-48
2023/02/24 05:42:05;;;;;;;79.93;30.27;;;7.10;67.20;;;2.31;100.00;94853.84;4959056;28;20216;-47
2023/02/24 05:44:34;;;;;;;102.50;31.92;;;7.20;67.20;;;2.35;100.00;94849.75;4973161;28;20381;-52
2023/02/24 05:47:03;;;;;;;90.38;31.23;;;7.20;68.00;;;2.39;100.00;94842.19;4951302;28;20509;-52
2023/02/24 05:49:33;;;;;;;100.50;31.65;;;7.20;67.20;;;2.42;100.00;94847.78;4971470;28;20026;-49
2023/02/24 05:52:08;;;;;;;82.93;29.75;;;7.30;67.30;;;2.45;100.00;94843.91;4963208;28;20027;-51
2023/02/24 05:54:41;;;;;;;74.28;27.27;;;7.30;67.40;;;2.48;100.00;94851.31;4968423;28;20026;-47
2023/02/24 05:57:15;;;;;;;80.28;29.75;;;7.30;67.40;;;2.47;100.00;94852.34;4970570;28;20116;-47
2023/02/24 05:59:43;;;;;;;81.82;31.80;;;7.40;67.40;;;2.53;100.00;94854.84;4958395;28;20836;-54
2023/02/24 06:02:26;;;;;;;71.65;29.35;;;7.40;67.40;;;2.57;100.00;94847.31;4986978;28;20068;-50
2023/02/24 06:04:54;;;;;;;76.85;26.92;;;7.40;67.40;;;2.59;100.00;94845.22;4969750;28;20018;-48
2023/02/24 06:07:33;;;;;;;76.60;27.63;;;7.40;67.30;;;2.59;100.00;94837.34;4971398;28;20452;-48
2023/02/24 06:10:03;;;;;;;85.75;29.65;;;7.40;67.30;;;2.56;100.00;94850.94;4931316;28;20833;-53
2023/02/24 06:12:34;;;;;;;95.15;29.70;;;7.40;67.30;;;2.55;100.00;94847.53;4960126;28;20030;-47
2023/02/24 06:15:06;;;;;;;74.43;28.70;;;7.40;67.30;;;2.54;100.00;94853.03;4952822;28;20039;-51
2023/02/24 06:17:32;;;;;;;75.00;28.23;;;7.40;67.30;;;2.53;100.00;94839.06;4970788;28;20116;-47
2023/02/24 06:19:58;;;;;;;67.82;25.92;;;7.40;67.30;;;2.49;100.00;94840.56;4960430;28;20026;-50
2023/02/24 06:22:26;;;;;;;74.45;28.52;;;7.30;67.20;;;2.45;100.00;94836.81;4962981;28;20093;-47
2023/02/24 06:24:55;;;;;;;74.45;26.27;;;7.30;67.20;;;2.39;100.00;94837.72;4964366;28;20557;-51
2023/02/24 06:27:23;;;;;;;71.03;26.90;;;7.30;67.20;;;2.33;100.00;94840.50;4970957;28;20422;-47
2023/02/24 06:29:52;;;;;;;77.22;26.40;;;7.30;67.20;;;2.34;100.00;94839.44;4958690;28;20042;-46
2023/02/24 06:32:24;;;;;;;80.60;26.17;;;7.20;67.10;;;2.31;100.00;94838.88;4966654;28;20064;-48
2023/02/24 06:34:52;;;;;;;93.00;30.67;;;7.20;67.10;;;2.29;100.00;94834.91;4961404;28;20548;-53
2023/02/24 06:37:18;;;;;;;77.45;26.90;;;7.20;67.10;;;2.28;100.00;94841.16;4952468;28;20048;-51
2023/02/24 06:39:45;;;;;;;77.90;28.70;;;7.20;67.10;;;2.20;100.00;94842.31;4963854;28;20050;-52
2023/02/24 06:42:12;;;;;;;79.72;28.48;;;7.20;67.20;;;2.25;100.00;94831.13;4962016;28;20473;-55
2023/02/24 06:44:40;;;;;;;81.47;28.55;;;7.20;67.30;;;2.35;100.00;94833.97;4970825;28;20030;-48
2023/02/24 06:47:12;;;;;;;75.18;26.63;;;7.30;67.60;;;2.38;100.00;94836.13;4966314;28;20034;-49
2023/02/24 06:49:38;;;;;;;70.18;24.63;;;7.30;67.60;;;2.42;100.00;94831.22;4953939;28;20041;-50
2023/02/24 06:52:05;;;;;;;81.18;26.85;;;7.40;67.50;;;2.38;100.00;94822.97;4969501;28;20485;-54
2023/02/24 06:54:34;;;;;;;79.53;26.95;;;7.40;67.30;;;2.40;100.00;94828.81;4971381;28;20062;-52
2023/02/24 06:57:02;;;;;;;104.60;30.85;;;7.40;67.30;;;2.44;100.00;94823.88;4971552;28;20048;-54
2023/02/24 06:59:28;;;;;;;87.72;29.45;;;7.50;67.30;;;2.46;100.00;94821.84;4971086;28;20108;-55
2023/02/24 07:02:03;;;;;;;112.88;31.90;;;7.50;67.30;;;2.55;100.00;94826.50;4960406;28;20034;-54
2023/02/24 07:04:29;;;;;;;103.82;29.30;;;7.60;67.40;;;2.66;100.00;94824.06;4963105;28;20026;-48
2023/02/24 07:07:02;;;;;;;95.97;30.02;;;7.70;67.50;;;2.73;100.00;94817.66;4970084;28;20032;-50
2023/02/24 07:09:30;;;;;;;89.45;30.80;;;7.70;67.50;;;2.80;100.00;94820.13;4966358;28;20481;-55
2023/02/24 07:11:57;;;;;;;88.30;29.13;;;7.80;67.50;;;2.87;100.00;94820.78;4951899;28;20049;-51
2023/02/24 07:14:29;;;;;;;89.80;29.48;;;7.90;67.60;;;2.91;100.00;94816.66;4952143;28;20062;-51
2023/02/24 07:16:57;;;;;;;76.10;27.20;;;7.90;67.50;;;2.95;100.00;94815.16;4946626;28;20041;-51
2023/02/24 07:19:40;;;;;;;76.35;27.77;;;8.00;67.40;;;3.00;100.00;94811.81;4960226;28;20031;-52
2023/02/24 07:22:08;;;;;;;75.72;26.55;;;8.10;67.50;;;3.03;100.00;94811.34;4960834;28;20113;-53
2023/02/24 07:24:39;;;;;;;89.50;29.17;;;8.20;67.40;;;3.12;100.00;94811.78;4966139;28;20057;-51
2023/02/24 07:27:20;;;;;;;120.03;28.73;;;8.30;67.40;;;3.20;100.00;94806.94;4966105;28;20030;-49
2023/02/24 07:29:49;;;;;;;96.53;28.65;;;8.40;67.30;;;3.28;100.00;94803.09;4968657;28;20025;-50
2023/02/24 07:32:21;;;;;;;72.05;26.75;;;8.50;67.20;;;3.37;100.00;94806.94;4957028;28;20049;-51
2023/02/24 07:34:50;;;;;;;80.20;27.10;;;8.60;67.30;;;3.45;100.00;94816.28;4940849;28;20141;-53
2023/02/24 07:37:18;;;;;;;81.57;26.17;;;8.70;67.20;;;3.49;100.00;94812.13;4968572;28;20424;-48
2023/02/24 07:39:44;;;;;;;73.60;27.75;;;8.70;67.10;;;3.53;100.00;94804.56;4951233;28;20018;-54
2023/02/24 07:42:12;;;;;;;74.50;27.67;;;8.80;67.10;;;3.61;100.00;94798.91;4968720;28;20109;-48
2023/02/24 07:44:47;;;;;;;79.55;27.70;;;8.90;67.00;;;3.72;100.00;94793.53;4969484;28;20037;-51
2023/02/24 07:47:16;;;;;;;72.50;27.95;;;9.00;67.10;;;3.88;100.00;94794.56;4965416;28;20030;-47
2023/02/24 07:49:49;;;;;;;79.82;30.05;;;9.20;67.00;;;4.11;100.00;94790.16;4954966;28;20118;-48
2023/02/24 07:52:18;;;;;;;90.05;27.17;;;9.40;67.10;;;4.31;100.00;94793.03;4968594;28;20113;-51
2023/02/24 07:54:54;;;;;;;90.68;30.70;;;9.60;67.00;;;4.56;100.00;94791.78;4962758;28;20038;-49
2023/02/24 07:57:27;;;;;;;90.35;31.55;;;9.90;67.20;;;4.81;100.00;94781.50;4962636;28;20062;-50
2023/02/24 07:59:54;;;;;;;75.72;27.40;;;10.10;67.00;;;5.06;100.00;94780.19;4956698;28;20504;-53
2023/02/24 08:02:28;;;;;;;76.25;26.63;;;10.40;67.00;;;5.24;100.00;94777.19;4968222;28;20033;-52
2023/02/24 08:04:59;;;;;;;64.40;25.75;;;10.60;67.00;;;5.34;100.00;94777.28;4967751;28;20026;-47
2023/02/24 08:07:29;;;;;;;64.45;26.83;;;10.80;66.80;;;5.48;100.00;94774.19;4956681;28;20030;-51
2023/02/24 08:10:22;;;;;;;60.55;24.50;;;11.00;66.60;;;5.53;100.00;94774.25;4958460;28;20161;-51
2023/02/24 08:12:55;;;;;;;55.58;24.08;;;11.20;66.50;;;5.64;100.00;94770.66;4968927;28;20050;-49
2023/02/24 08:15:32;;;;;;;52.30;24.17;;;11.40;66.30;;;5.73;100.00;94766.47;4966860;28;20034;-51
2023/02/24 08:18:00;;;;;;;51.58;25.77;;;11.50;66.00;;;5.93;100.00;94762.41;4959631;28;20034;-46
2023/02/24 08:20:51;;;;;;;43.60;24.23;;;11.70;65.90;;;6.15;100.00;94768.38;4960888;28;20022;-54
2023/02/24 08:23:18;;;;;;;45.30;22.55;;;12.00;65.80;;;6.40;100.00;94759.75;4959215;28;20454;-48
2023/02/24 08:25:44;;;;;;;42.90;23.38;;;12.30;65.60;;;6.46;100.00;94763.22;4963986;28;20054;-49
2023/02/24 08:28:25;;;;;;;50.72;24.55;;;12.60;65.30;;;6.74;100.00;94764.66;4959758;28;20026;-49
2023/02/24 08:30:51;;;;;;;46.20;24.15;;;12.90;65.20;;;7.08;100.00;94759.72;4968467;28;20033;-49
2023/02/24 08:33:21;;;;;;;50.83;25.73;;;13.20;65.00;;;7.23;100.00;94752.84;4957918;28;20034;-50
2023/02/24 08:36:00;;;;;;;49.53;27.05;;;13.50;64.90;;;7.53;100.00;94754.72;4949062;28;20123;-49
2023/02/24 08:38:38;;;;;;;41.50;23.73;;;13.80;64.70;;;7.75;100.00;94746.50;4956427;28;20061;-48
2023/02/24 08:41:16;;;;;;;44.88;25.02;;;14.20;64.50;;;7.92;100.00;94741.69;4933101;28;20497;-52
2023/02/24 08:43:45;;;;;;;39.22;23.48;;;14.50;64.10;;;8.18;100.00;94747.75;4950411;28;20050;-51
2023/02/24 08:46:17;;;;;;;39.15;21.20;;;14.70;63.70;;;8.28;97.84;94749.59;4959175;28;20026;-51
2023/02/24 08:48:59;;;;;;;31.30;20.80;;;15.00;63.40;;;8.45;97.59;94741.31;4962506;28;20048;-50
2023/02/24 08:51:42;;;;;;;34.28;20.48;;;15.30;62.70;;;8.66;94.83;94736.75;4938513;28;20022;-51
2023/02/24 08:54:14;;;;;;;31.92;18.85;;;15.60;62.30;;;8.89;92.47;94737.94;4963929;28;20053;-51
2023/02/24 08:56:47;;;;;;;30.63;16.90;;;15.80;61.70;;;9.22;92.74;94747.84;4957524;28;20504;-51
2023/02/24 08:59:36;;;;;;;26.35;15.52;;;16.20;61.10;;;9.63;89.24;94741.44;4919572;28;20049;-52
2023/02/24 09:02:28;;;;;;;21.38;13.80;;;16.60;60.30;;;10.09;84.97;94747.16;4920740;28;20040;-52
2023/02/24 09:05:09;;;;;;;19.23;13.80;;;17.00;59.60;;;10.56;83.69;94742.94;4965794;28;20108;-47
2023/02/24 09:07:41;;;;;;;20.85;13.80;;;17.60;58.90;;;10.76;80.91;94736.56;4949157;28;20038;-47
2023/02/24 09:10:18;;;;;;;18.93;12.03;;;17.90;58.10;;;11.01;79.74;94735.44;4965091;28;20538;-47
2023/02/24 09:12:44;;;;;;;20.83;12.43;;;18.10;57.40;;;11.18;77.21;94732.28;4952065;23;20070;-48
2023/02/24 09:15:15;;;;;;;19.60;12.13;;;18.30;57.40;;;11.35;76.06;94731.78;4942233;28;20089;-49
2023/02/24 09:23:07;;;;;;;21.25;11.20;;;18.80;54.90;;;12.02;70.93;94726.19;4960619;28;20061;-49
2023/02/24 09:25:42;;;;;;;14.70;10.38;;;19.10;54.60;;;12.14;68.88;94723.84;4950706;28;20026;-50
2023/02/24 09:28:18;;;;;;;17.40;10.23;;;19.40;53.30;;;12.54;68.07;94724.16;4963853;28;20034;-48
2023/02/24 09:30:54;;;;;;;18.33;10.00;;;19.60;53.00;;;12.70;66.58;94714.75;4951424;28;20030;-50
2023/02/24 09:33:38;;;;;;;16.88;11.20;;;19.80;53.20;;;12.94;66.12;94716.38;4952131;28;20035;-48
2023/02/24 09:36:26;;;;;;;15.30;10.85;;;20.00;51.90;;;13.12;65.63;94718.13;4954543;28;20038;-53
2023/02/24 09:41:52;;;;;;;15.15;9.77;;;20.50;51.10;;;13.56;63.29;94715.84;4955201;28;20559;-52
2023/02/24 09:45:00;;;;;;;21.77;10.63;;;20.80;50.40;;;13.79;61.96;94704.03;4953076;28;20437;-48
2023/02/24 09:47:56;;;;;;;20.20;9.85;;;21.10;50.30;;;13.94;60.87;94708.19;4920213;28;20033;-50
2023/02/24 09:50:44;;;;;;;16.70;10.63;;;21.30;49.50;;;13.95;59.13;94698.31;4952024;28;20041;-49
2023/02/24 09:53:17;;;;;;;16.27;10.38;;;21.50;49.10;;;14.28;59.72;94696.88;4951746;28;20019;-50
2023/02/24 09:56:05;;;;;;;20.90;11.43;;;21.70;48.40;;;14.68;58.28;94698.78;4952366;28;20501;-49
2023/02/24 09:59:24;;;;;;;16.15;9.63;;;21.90;47.70;;;14.95;57.63;94687.81;4965840;28;20126;-48
2023/02/24 10:02:45;;;;;;;16.85;10.57;;;22.20;47.60;;;15.32;55.47;94679.44;4951745;28;20026;-52
2023/02/24 10:06:10;;;;;;;19.23;9.23;;;22.50;47.00;;;15.55;54.42;94680.88;4950784;28;20393;-49
2023/02/24 10:08:48;;;;;;;15.68;9.43;;;22.90;46.60;;;15.64;53.46;94672.81;4953964;28;20039;-49
2023/02/24 10:11:32;;;;;;;15.77;9.85;;;23.10;45.60;;;15.83;52.95;94672.50;4953742;28;20119;-49
2023/02/24 10:14:05;;;;;;;12.00;9.07;;;23.30;44.70;;;16.09;52.43;94672.41;4957637;28;20042;-52
2023/02/24 10:16:43;;;;;;;13.25;9.25;;;23.50;44.40;;;16.12;51.06;94664.50;4951749;28;20081;-51
2023/02/24 10:19:29;;;;;;;13.63;8.82;;;23.80;43.50;;;16.38;50.92;94656.31;4967331;28;20153;-48
2023/02/24 10:22:39;;;;;;;15.73;8.80;;;24.10;42.80;;;16.35;50.21;94656.97;4961465;28;20022;-52
2023/02/24 10:25:52;;;;;;;14.77;9.20;;;24.20;42.30;;;16.69;49.53;94649.06;4952675;28;20030;-53
2023/02/24 10:28:52;;;;;;;;;;;24.30;41.50;;;16.88;49.47;94654.81;4946526;28;20038;-50
2023/02/24 10:31:35;;;;;;;17.65;8.80;;;24.50;42.60;;;16.82;49.49;94642.69;4968117;28;20000;-48
2023/02/24 10:34:18;;;;;;;;;;;24.70;41.40;;;17.09;49.02;94647.56;4971703;28;20026;-49
2023/02/24 10:36:49;;;;;;;;;;;25.00;42.30;;;17.17;48.55;94645.91;4962238;28;19933;-52
2023/02/24 10:39:19;;;;;;;13.98;8.30;;;25.20;42.50;;;17.38;48.36;94643.19;4948484;28;20324;-52
2023/02/24 10:42:18;;;;;;;13.07;8.38;;;25.10;41.30;;;17.67;48.35;94642.28;4950869;28;20090;-52
2023/02/24 10:44:51;;;;;;;19.38;10.43;;;25.20;40.70;;;17.58;47.36;94642.41;4962937;28;20031;-54
2023/02/24 10:47:31;;;;;;;16.88;9.38;;;25.30;40.10;;;17.90;46.47;94633.88;4947347;28;20385;-50
2023/02/24 10:50:02;;;;;;;15.60;9.63;;;25.40;39.50;;;17.65;46.90;94628.41;4931508;28;20054;-50
2023/02/24 10:58:27;;;;;;;18.30;10.38;;;25.60;38.40;;;17.60;48.12;94630.50;4949388;28;20129;-50
2023/02/24 11:01:19;;;;;;;14.95;9.52;;;25.60;37.80;;;18.01;46.84;94622.31;4941458;28;20049;-48
2023/02/24 11:04:21;;;;;;;17.65;10.10;;;25.70;37.90;;;18.26;45.23;94628.53;4948250;28;20023;-51
2023/02/24 11:06:51;;;;;;;13.98;10.70;;;25.80;37.80;;;18.33;45.87;94622.56;4950416;28;20338;-50
2023/02/24 11:18:02;;;;;;;17.50;10.68;;;26.70;36.60;;;18.84;44.25;94592.56;4944533;28;20037;-49
2023/02/24 11:20:51;;;;;;;19.05;10.82;;;27.00;36.20;;;18.65;44.13;94595.84;4968840;28;20034;-49